Time;durP1;ratioP1;P1;durP2;ratioP2;P2;SDS_P1;SDS_P2;PMS_P1;PMS_P2;Temp;Humidity;BMP_temperature;BMP_pressure;BME280_temperature;BME280_humidity;BME280_pressure;Samples;Min_cycle;Max_cycle;Signal;HPM_P1;HPM_P2
2024/03/22 00:00:43;;;;;;;0.40;0.40;;;;;;;6.90;100.00;101498.38;5003409;28;20046;-72
2024/03/22 00:03:09;;;;;;;0.40;0.40;;;;;;;6.83;100.00;101498.06;5011883;28;20029;-73
2024/03/22 00:05:34;;;;;;;0.40;0.40;;;;;;;6.75;100.00;101497.88;5020655;28;20546;-72
2024/03/22 00:08:00;;;;;;;0.40;0.40;;;;;;;6.62;100.00;101497.25;5020429;28;20088;-72
2024/03/22 00:10:26;;;;;;;0.40;0.40;;;;;;;6.49;100.00;101491.25;5020140;28;20119;-72
2024/03/22 00:12:52;;;;;;;0.40;0.40;;;;;;;6.35;100.00;101490.63;5040204;28;20046;-72
2024/03/22 00:15:18;;;;;;;0.50;0.50;;;;;;;6.26;100.00;101493.22;5014443;28;20423;-73
2024/03/22 00:17:44;;;;;;;0.40;0.40;;;;;;;6.21;100.00;101488.25;5040452;28;20132;-72
2024/03/22 00:20:10;;;;;;;0.40;0.40;;;;;;;6.10;100.00;101489.16;5010512;28;20095;-71
2024/03/22 00:22:36;;;;;;;0.40;0.40;;;;;;;5.96;100.00;101500.16;5012365;28;20037;-72
2024/03/22 00:25:02;;;;;;;0.40;0.40;;;;;;;5.87;100.00;101495.53;5011886;28;20040;-72
2024/03/22 00:27:28;;;;;;;0.40;0.40;;;;;;;5.77;100.00;101499.94;5024029;28;20065;-72
2024/03/22 00:29:53;;;;;;;0.40;0.40;;;;;;;5.68;100.00;101498.88;5029877;28;20030;-72
2024/03/22 00:32:19;;;;;;;0.50;0.50;;;;;;;5.65;100.00;101497.31;5016773;28;20407;-72
2024/03/22 00:34:45;;;;;;;0.40;0.40;;;;;;;5.66;100.00;101506.16;5021813;28;20365;-72
2024/03/22 00:37:11;;;;;;;0.40;0.40;;;;;;;5.76;100.00;101501.75;5006409;28;20034;-72
2024/03/22 00:39:36;;;;;;;0.43;0.43;;;;;;;5.80;100.00;101497.03;5018994;28;20032;-72
2024/03/22 00:42:02;;;;;;;0.40;0.40;;;;;;;5.84;100.00;101498.47;5004662;28;20069;-71
2024/03/22 00:44:28;;;;;;;0.40;0.40;;;;;;;5.83;100.00;101492.28;5011564;28;20373;-72
2024/03/22 00:46:53;;;;;;;0.40;0.40;;;;;;;5.80;100.00;101497.03;5019221;28;20045;-72
2024/03/22 00:49:19;;;;;;;0.40;0.40;;;;;;;5.77;100.00;101500.81;5027284;28;20037;-72
2024/03/22 00:51:45;;;;;;;0.50;0.50;;;;;;;5.82;100.00;101500.41;5037725;28;20451;-72
2024/03/22 00:54:11;;;;;;;0.40;0.40;;;;;;;5.75;100.00;101491.22;5017894;28;20041;-72
2024/03/22 00:56:36;;;;;;;0.40;0.40;;;;;;;5.62;100.00;101505.56;5018720;28;20041;-72
2024/03/22 00:59:02;;;;;;;0.40;0.40;;;;;;;5.51;100.00;101501.09;5010703;28;20029;-71
2024/03/22 01:01:28;;;;;;;0.40;0.40;;;;;;;5.48;100.00;101506.69;4998532;28;20030;-72
2024/03/22 01:03:53;;;;;;;0.40;0.40;;;;;;;5.37;100.00;101503.19;5013409;28;20029;-72
2024/03/22 01:06:23;;;;;;;0.40;0.40;;;;;;;5.33;100.00;101501.75;5014270;28;20040;-72
2024/03/22 01:08:49;;;;;;;0.40;0.40;;;;;;;5.33;100.00;101501.75;5051350;28;20036;-72
2024/03/22 01:11:24;;;;;;;0.40;0.40;;;;;;;5.28;100.00;101508.28;5003857;28;20044;-72
2024/03/22 01:13:59;;;;;;;0.50;0.50;;;;;;;5.22;100.00;101500.78;5000242;28;20113;-72
2024/03/22 01:16:24;;;;;;;0.40;0.40;;;;;;;5.08;100.00;101493.06;4998519;28;20120;-72
2024/03/22 01:18:50;;;;;;;0.40;0.40;;;;;;;4.93;100.00;101497.78;5025630;28;20042;-72
2024/03/22 01:21:16;;;;;;;0.40;0.40;;;;;;;4.80;100.00;101489.91;4998181;28;20041;-72
2024/03/22 01:23:41;;;;;;;0.40;0.40;;;;;;;4.69;100.00;101489.06;5018851;28;20037;-72
2024/03/22 01:26:07;;;;;;;0.40;0.40;;;;;;;4.59;100.00;101492.41;5006760;28;20040;-72
2024/03/22 01:28:32;;;;;;;0.40;0.40;;;;;;;4.54;100.00;101488.41;5016588;28;20037;-72
2024/03/22 01:30:58;;;;;;;0.40;0.40;;;;;;;4.44;100.00;101485.59;5039734;28;20036;-72
2024/03/22 01:33:24;;;;;;;0.40;0.40;;;;;;;4.32;100.00;101498.06;5032011;28;20082;-72
2024/03/22 01:35:49;;;;;;;0.40;0.40;;;;;;;4.16;100.00;101486.88;5004836;28;20091;-71
2024/03/22 01:38:15;;;;;;;0.40;0.40;;;;;;;4.15;100.00;101493.16;5019282;28;20464;-72
2024/03/22 01:40:40;;;;;;;0.40;0.40;;;;;;;4.19;100.00;101495.47;5005119;28;20033;-71
2024/03/22 01:43:06;;;;;;;0.40;0.40;;;;;;;4.22;100.00;101494.41;5010348;28;20044;-71
2024/03/22 01:45:33;;;;;;;0.50;0.50;;;;;;;4.22;100.00;101496.22;4998465;28;20045;-72
2024/03/22 01:48:00;;;;;;;0.40;0.40;;;;;;;4.18;100.00;101501.78;5019538;28;20026;-72
2024/03/22 01:50:26;;;;;;;0.40;0.40;;;;;;;4.09;100.00;101490.97;5048706;28;20032;-73
2024/03/22 01:52:52;;;;;;;0.40;0.40;;;;;;;4.07;100.00;101499.06;5008341;28;20032;-72
2024/03/22 01:55:18;;;;;;;0.50;0.50;;;;;;;3.91;100.00;101494.03;5020465;28;20541;-72
2024/03/22 01:57:44;;;;;;;0.40;0.40;;;;;;;3.83;100.00;101490.25;5013469;28;20033;-73
2024/03/22 02:00:12;;;;;;;0.40;0.40;;;;;;;3.77;100.00;101496.88;5017343;28;20124;-72
2024/03/22 02:02:37;;;;;;;0.40;0.40;;;;;;;3.79;100.00;101502.94;5017325;28;20160;-72
2024/03/22 02:05:19;;;;;;;0.50;0.50;;;;;;;3.91;100.00;101495.84;5036556;28;20029;-71
2024/03/22 02:07:45;;;;;;;0.50;0.50;;;;;;;4.17;100.00;101491.22;5045893;28;20108;-72
2024/03/22 02:10:12;;;;;;;0.40;0.40;;;;;;;4.41;100.00;101500.00;5026620;28;20480;-71
2024/03/22 02:12:41;;;;;;;0.50;0.50;;;;;;;4.69;100.00;101492.56;5034844;28;20032;-72
2024/03/22 02:15:08;;;;;;;0.40;0.40;;;;;;;4.91;100.00;101493.53;5048002;28;20026;-71
2024/03/22 02:17:34;;;;;;;0.50;0.50;;;;;;;5.09;100.00;101500.06;4998099;28;20034;-72
2024/03/22 02:20:01;;;;;;;0.43;0.43;;;;;;;5.23;100.00;101493.63;5016074;28;20081;-71
2024/03/22 02:22:27;;;;;;;0.40;0.40;;;;;;;5.35;100.00;101498.00;5040412;28;20038;-72
2024/03/22 02:24:53;;;;;;;0.40;0.40;;;;;;;5.27;100.00;101497.75;5029858;28;20038;-72
2024/03/22 02:27:18;;;;;;;0.40;0.40;;;;;;;5.03;100.00;101511.25;5010680;28;20547;-72
2024/03/22 02:29:46;;;;;;;0.50;0.50;;;;;;;4.77;100.00;101502.63;5018002;28;20037;-72
2024/03/22 02:32:14;;;;;;;0.40;0.40;;;;;;;4.57;100.00;101499.66;5020712;28;20037;-72
2024/03/22 02:34:40;;;;;;;0.40;0.40;;;;;;;4.38;100.00;101504.72;5023974;28;20092;-72
2024/03/22 02:37:05;;;;;;;0.50;0.50;;;;;;;4.26;100.00;101503.88;5008285;28;20037;-72
2024/03/22 02:39:31;;;;;;;0.43;0.43;;;;;;;4.16;100.00;101505.53;5019031;28;20040;-72
2024/03/22 02:41:57;;;;;;;0.40;0.40;;;;;;;4.11;100.00;101505.03;5007955;28;20456;-71
2024/03/22 02:44:24;;;;;;;0.45;0.45;;;;;;;4.12;100.00;101504.03;4997645;28;20038;-72
2024/03/22 02:46:50;;;;;;;0.40;0.40;;;;;;;4.10;100.00;101496.19;5033128;28;20488;-72
2024/03/22 02:49:16;;;;;;;0.40;0.40;;;;;;;4.04;100.00;101498.44;5046575;28;20031;-71
2024/03/22 02:51:41;;;;;;;0.40;0.40;;;;;;;3.91;100.00;101499.34;5017937;28;20471;-72
2024/03/22 02:54:07;;;;;;;0.40;0.40;;;;;;;3.83;100.00;101504.41;5007244;28;20041;-71
2024/03/22 02:56:32;;;;;;;0.40;0.40;;;;;;;3.81;100.00;101492.19;5011193;28;20044;-71
2024/03/22 02:58:58;;;;;;;0.40;0.40;;;;;;;3.69;100.00;101491.28;4996949;28;20038;-72
2024/03/22 03:01:24;;;;;;;0.40;0.40;;;;;;;3.55;100.00;101496.75;5008055;28;20045;-72
2024/03/22 03:03:49;;;;;;;0.50;0.50;;;;;;;3.41;100.00;101497.75;5033716;28;20468;-72
2024/03/22 03:06:16;;;;;;;0.40;0.40;;;;;;;3.36;100.00;101495.47;5042924;28;20042;-72
2024/03/22 03:08:42;;;;;;;0.50;0.50;;;;;;;3.41;100.00;101492.44;5009215;28;20034;-72
2024/03/22 03:11:08;;;;;;;0.50;0.50;;;;;;;3.44;100.00;101493.09;5011100;28;20480;-72
2024/03/22 03:13:33;;;;;;;0.40;0.40;;;;;;;3.43;100.00;101499.34;5045278;28;20033;-72
2024/03/22 03:15:59;;;;;;;0.40;0.40;;;;;;;3.42;100.00;101500.31;5002799;28;20041;-72
2024/03/22 03:18:25;;;;;;;0.40;0.40;;;;;;;3.41;100.00;101498.59;5004216;28;20040;-71
2024/03/22 03:20:50;;;;;;;0.40;0.40;;;;;;;3.40;100.00;101493.41;5019412;28;20029;-72
2024/03/22 03:23:16;;;;;;;0.50;0.50;;;;;;;3.41;100.00;101503.09;5011398;28;20056;-72
2024/03/22 03:25:41;;;;;;;0.40;0.40;;;;;;;3.38;100.00;101498.00;5011616;28;20491;-72
2024/03/22 03:28:10;;;;;;;0.50;0.50;;;;;;;3.29;100.00;101507.50;5013771;28;20041;-71
2024/03/22 03:30:35;;;;;;;0.50;0.50;;;;;;;3.35;100.00;101501.72;5014869;28;20387;-72
2024/03/22 03:33:01;;;;;;;0.40;0.40;;;;;;;3.44;100.00;101494.88;5028288;28;20460;-72
2024/03/22 03:35:28;;;;;;;0.50;0.50;;;;;;;3.33;100.00;101492.16;5005597;28;20111;-72
2024/03/22 03:37:54;;;;;;;0.40;0.40;;;;;;;3.27;100.00;101496.09;5011764;28;20046;-72
2024/03/22 03:40:21;;;;;;;0.50;0.50;;;;;;;3.23;100.00;101502.63;5004575;28;20133;-71
2024/03/22 03:42:47;;;;;;;0.50;0.50;;;;;;;3.17;100.00;101501.22;4999665;28;20034;-72
2024/03/22 03:45:13;;;;;;;0.40;0.40;;;;;;;3.07;100.00;101495.75;5043484;28;20047;-72
2024/03/22 03:47:38;;;;;;;0.50;0.50;;;;;;;3.09;100.00;101499.13;5013499;28;20448;-72
2024/03/22 03:50:04;;;;;;;0.40;0.40;;;;;;;3.05;100.00;101516.25;5016345;28;20044;-72
2024/03/22 03:52:32;;;;;;;0.40;0.40;;;;;;;2.98;100.00;101516.78;5053078;28;20053;-72
2024/03/22 03:54:58;;;;;;;0.50;0.50;;;;;;;2.75;100.00;101513.06;5020735;28;20087;-72
2024/03/22 03:57:24;;;;;;;0.40;0.40;;;;;;;2.63;100.00;101505.00;5018007;28;20034;-71
2024/03/22 03:59:49;;;;;;;0.47;0.47;;;;;;;2.88;100.00;101513.91;5032462;28;20030;-71
2024/03/22 04:02:15;;;;;;;0.40;0.40;;;;;;;3.12;100.00;101513.16;5014730;28;20064;-72
2024/03/22 04:04:40;;;;;;;0.40;0.40;;;;;;;3.33;100.00;101519.56;5038356;28;20033;-72
2024/03/22 04:07:06;;;;;;;0.50;0.50;;;;;;;3.41;100.00;101519.03;5006147;28;20029;-73
2024/03/22 04:09:33;;;;;;;0.40;0.40;;;;;;;3.26;100.00;101516.53;5004401;28;20124;-72
2024/03/22 04:11:59;;;;;;;0.40;0.40;;;;;;;3.08;100.00;101510.72;5015651;28;20125;-72
2024/03/22 04:14:25;;;;;;;0.50;0.50;;;;;;;2.86;100.00;101513.19;5013000;28;20129;-72
2024/03/22 04:16:51;;;;;;;0.50;0.50;;;;;;;2.72;100.00;101508.81;5028689;28;20032;-72
2024/03/22 04:19:17;;;;;;;0.40;0.40;;;;;;;2.61;100.00;101503.41;5020631;28;20037;-71
2024/03/22 04:21:42;;;;;;;0.40;0.40;;;;;;;2.54;100.00;101513.63;5018770;28;20099;-71
2024/03/22 04:24:08;;;;;;;0.40;0.40;;;;;;;2.49;100.00;101507.78;5000623;28;20396;-71
2024/03/22 04:26:34;;;;;;;0.40;0.40;;;;;;;2.39;100.00;101510.19;5026135;28;20045;-72
2024/03/22 04:28:59;;;;;;;0.40;0.40;;;;;;;2.34;100.00;101508.81;5022152;28;20468;-71
2024/03/22 04:31:25;;;;;;;0.40;0.40;;;;;;;2.47;100.00;101520.28;5044392;28;20041;-71
2024/03/22 04:33:50;;;;;;;0.40;0.40;;;;;;;2.67;100.00;101523.38;5004703;28;20542;-71
2024/03/22 04:36:16;;;;;;;0.50;0.50;;;;;;;2.66;100.00;101527.00;5017615;28;20029;-71
2024/03/22 04:38:42;;;;;;;0.50;0.50;;;;;;;2.66;100.00;101533.16;5018304;28;20369;-71
2024/03/22 04:41:07;;;;;;;0.40;0.40;;;;;;;2.55;100.00;101528.59;5007646;28;20045;-71
2024/03/22 04:43:33;;;;;;;0.50;0.50;;;;;;;2.49;100.00;101528.13;5002067;28;20035;-71
2024/03/22 04:45:59;;;;;;;0.40;0.40;;;;;;;2.42;100.00;101535.69;5027489;28;20029;-71
2024/03/22 04:48:24;;;;;;;0.50;0.50;;;;;;;2.33;100.00;101534.50;5002914;28;20464;-72
2024/03/22 04:50:51;;;;;;;0.47;0.47;;;;;;;2.22;100.00;101528.22;4996963;28;20367;-72
2024/03/22 04:53:18;;;;;;;0.50;0.50;;;;;;;2.18;100.00;101532.88;5026662;28;20061;-71
2024/03/22 04:55:47;;;;;;;0.40;0.40;;;;;;;2.17;100.00;101528.50;5028338;28;20037;-71
2024/03/22 04:58:17;;;;;;;0.50;0.50;;;;;;;2.16;100.00;101527.66;4991108;28;20037;-72
2024/03/22 05:00:43;;;;;;;0.50;0.50;;;;;;;2.16;100.00;101538.28;5031301;28;20091;-72
2024/03/22 05:03:09;;;;;;;0.50;0.50;;;;;;;2.22;100.00;101531.72;5017273;28;20029;-71
2024/03/22 05:05:35;;;;;;;0.50;0.50;;;;;;;2.30;100.00;101531.19;5018666;28;20036;-71
2024/03/22 05:08:01;;;;;;;0.50;0.50;;;;;;;2.39;100.00;101525.28;5009807;28;20468;-72
2024/03/22 05:10:28;;;;;;;0.40;0.40;;;;;;;2.51;100.00;101535.03;5002500;28;20087;-72
2024/03/22 05:12:55;;;;;;;0.50;0.50;;;;;;;2.69;100.00;101548.03;5022914;28;20033;-72
2024/03/22 05:15:21;;;;;;;0.50;0.50;;;;;;;3.02;100.00;101566.09;5050425;28;20076;-72
2024/03/22 05:17:46;;;;;;;0.50;0.50;;;;;;;3.35;100.00;101556.69;5035950;28;20463;-72
2024/03/22 05:20:12;;;;;;;0.40;0.40;;;;;;;3.61;100.00;101558.34;5052350;28;20055;-72
2024/03/22 05:22:38;;;;;;;0.50;0.50;;;;;;;3.73;100.00;101546.81;5018416;28;20113;-71
2024/03/22 05:25:04;;;;;;;0.40;0.40;;;;;;;3.96;100.00;101546.91;5001830;28;20037;-71
2024/03/22 05:27:31;;;;;;;0.50;0.50;;;;;;;4.17;100.00;101536.47;5017189;28;20384;-71
2024/03/22 05:29:59;;;;;;;0.40;0.40;;;;;;;4.17;100.00;101537.31;5013902;28;20076;-72
2024/03/22 05:32:25;;;;;;;0.50;0.50;;;;;;;4.10;100.00;101544.09;5012276;28;20042;-71
2024/03/22 05:34:51;;;;;;;0.50;0.50;;;;;;;4.09;100.00;101533.56;5012076;28;20040;-73
2024/03/22 05:37:17;;;;;;;0.50;0.50;;;;;;;4.01;100.00;101531.47;5050076;28;20124;-71
2024/03/22 05:39:43;;;;;;;0.50;0.50;;;;;;;4.04;100.00;101538.38;5053408;28;20032;-73
2024/03/22 05:42:08;;;;;;;0.40;0.40;;;;;;;4.11;100.00;101547.59;5007694;28;20040;-72
2024/03/22 05:44:34;;;;;;;0.50;0.50;;;;;;;4.18;100.00;101541.72;5018678;28;20042;-72
2024/03/22 05:47:00;;;;;;;0.40;0.40;;;;;;;4.20;100.00;101544.22;5019347;28;20129;-71
2024/03/22 05:49:26;;;;;;;0.40;0.40;;;;;;;4.19;100.00;101545.22;5032679;28;20442;-71
2024/03/22 05:51:52;;;;;;;0.50;0.50;;;;;;;4.10;100.00;101552.09;5049455;28;20523;-72
2024/03/22 05:54:17;;;;;;;0.40;0.40;;;;;;;3.99;100.00;101549.34;5018375;28;20044;-71
2024/03/22 05:56:43;;;;;;;0.40;0.40;;;;;;;3.79;100.00;101548.16;5008999;28;20089;-71
2024/03/22 05:59:10;;;;;;;0.40;0.40;;;;;;;3.60;100.00;101556.66;5028359;28;20043;-71
2024/03/22 06:01:36;;;;;;;0.50;0.50;;;;;;;3.49;100.00;101557.41;5006883;28;20068;-71
2024/03/22 06:04:01;;;;;;;0.50;0.50;;;;;;;3.47;100.00;101548.69;5002350;28;20535;-71
2024/03/22 06:06:27;;;;;;;0.40;0.40;;;;;;;3.45;100.00;101550.59;5008884;28;20072;-71
2024/03/22 06:08:54;;;;;;;0.40;0.40;;;;;;;3.38;100.00;101554.66;5033902;28;20060;-71
2024/03/22 06:11:21;;;;;;;0.40;0.40;;;;;;;3.30;100.00;101557.00;5009895;28;20059;-71
2024/03/22 06:13:47;;;;;;;0.50;0.50;;;;;;;3.24;100.00;101555.66;5033271;28;20120;-72
2024/03/22 06:16:12;;;;;;;0.50;0.50;;;;;;;3.20;100.00;101555.97;5007648;28;20181;-72
2024/03/22 06:18:39;;;;;;;0.40;0.40;;;;;;;3.16;100.00;101560.66;5013338;28;20034;-71
2024/03/22 06:21:04;;;;;;;0.40;0.40;;;;;;;3.08;100.00;101569.16;5013981;28;20045;-72
2024/03/22 06:23:31;;;;;;;0.40;0.40;;;;;;;3.00;100.00;101562.69;5045437;28;20032;-71
2024/03/22 06:25:57;;;;;;;0.50;0.50;;;;;;;2.90;100.00;101557.16;5022327;28;20418;-71
2024/03/22 06:28:23;;;;;;;0.50;0.50;;;;;;;2.88;100.00;101566.19;5011792;28;20041;-71
2024/03/22 06:30:49;;;;;;;0.50;0.50;;;;;;;2.81;100.00;101568.44;4998302;28;20038;-72
2024/03/22 06:33:15;;;;;;;0.50;0.50;;;;;;;2.85;100.00;101565.44;5004062;28;20033;-71
2024/03/22 06:35:41;;;;;;;0.50;0.50;;;;;;;2.87;100.00;101568.00;5014236;28;20168;-72
2024/03/22 06:38:07;;;;;;;0.50;0.50;;;;;;;2.89;100.00;101571.41;5006058;28;20032;-72
2024/03/22 06:40:32;;;;;;;0.40;0.40;;;;;;;2.82;100.00;101578.09;5000481;28;20041;-72
2024/03/22 06:42:58;;;;;;;0.50;0.50;;;;;;;2.79;100.00;101571.19;5034805;28;20045;-71
2024/03/22 06:45:24;;;;;;;0.50;0.50;;;;;;;2.77;100.00;101574.91;5011334;28;20559;-71
2024/03/22 06:47:49;;;;;;;0.40;0.40;;;;;;;2.73;100.00;101576.94;5016227;28;20117;-71
2024/03/22 06:50:17;;;;;;;0.40;0.40;;;;;;;2.67;100.00;101576.47;5014342;28;20104;-72
2024/03/22 06:52:43;;;;;;;0.50;0.50;;;;;;;2.70;100.00;101581.56;5047702;28;20026;-71
2024/03/22 06:55:08;;;;;;;0.50;0.50;;;;;;;2.77;100.00;101583.72;5047926;28;20071;-72
2024/03/22 06:57:34;;;;;;;0.50;0.50;;;;;;;2.95;100.00;101584.25;5018157;28;20487;-71
2024/03/22 07:00:00;;;;;;;0.40;0.40;;;;;;;3.01;100.00;101578.50;5008139;28;20041;-71
2024/03/22 07:02:26;;;;;;;0.50;0.50;;;;;;;3.15;100.00;101584.66;5008178;28;20127;-71
2024/03/22 07:04:52;;;;;;;0.50;0.50;;;;;;;3.24;100.00;101592.00;5033494;28;20045;-72
2024/03/22 07:07:18;;;;;;;0.50;0.50;;;;;;;3.26;100.00;101592.75;5003916;28;20163;-72
2024/03/22 07:09:44;;;;;;;0.40;0.40;;;;;;;3.26;100.00;101590.94;5033968;28;20045;-72
2024/03/22 07:12:09;;;;;;;0.50;0.50;;;;;;;3.26;100.00;101590.09;5035697;28;20025;-71
2024/03/22 07:14:35;;;;;;;0.50;0.50;;;;;;;3.45;100.00;101601.13;5023085;28;20045;-71
2024/03/22 07:17:01;;;;;;;0.50;0.50;;;;;;;3.51;100.00;101608.66;5012504;28;20132;-72
2024/03/22 07:19:28;;;;;;;0.50;0.50;;;;;;;3.62;100.00;101601.72;5007200;28;20079;-72
2024/03/22 07:21:54;;;;;;;0.50;0.50;;;;;;;3.82;100.00;101611.78;5016979;28;20030;-71
2024/03/22 07:24:23;;;;;;;0.50;0.50;;;;;;;3.94;100.00;101610.03;5008102;28;20076;-72
2024/03/22 07:26:49;;;;;;;0.50;0.50;;;;;;;3.97;100.00;101608.03;5019272;28;20038;-72
2024/03/22 07:29:15;;;;;;;0.50;0.50;;;;;;;3.92;100.00;101610.16;5046192;28;20043;-72
2024/03/22 07:31:40;;;;;;;0.50;0.50;;;;;;;3.87;100.00;101612.31;5005694;28;20200;-71
2024/03/22 07:34:06;;;;;;;0.50;0.50;;;;;;;4.22;100.00;101616.00;5016481;28;20030;-71
2024/03/22 07:36:32;;;;;;;0.52;0.52;;;;;;;4.62;100.00;101609.38;5016494;28;20037;-74
2024/03/22 07:38:58;;;;;;;0.50;0.50;;;;;;;4.96;100.00;101613.97;5008437;28;20034;-74
2024/03/22 07:41:23;;;;;;;0.50;0.50;;;;;;;5.24;100.00;101613.50;5010760;28;20084;-74
2024/03/22 07:43:49;;;;;;;0.50;0.50;;;;;;;5.37;100.00;101623.19;5038795;28;20471;-72
2024/03/22 07:46:15;;;;;;;0.50;0.50;;;;;;;5.70;100.00;101622.34;5041295;28;20456;-73
2024/03/22 07:48:40;;;;;;;0.52;0.52;;;;;;;6.03;100.00;101616.13;5049818;28;20144;-72
2024/03/22 07:51:06;;;;;;;0.50;0.50;;;;;;;6.31;100.00;101622.72;5003241;28;20041;-72
2024/03/22 07:53:32;;;;;;;0.50;0.50;;;;;;;6.93;100.00;101617.56;5001773;28;20132;-72
2024/03/22 07:55:57;;;;;;;0.50;0.50;;;;;;;7.42;100.00;101613.31;5041066;28;20034;-72
2024/03/22 07:58:23;;;;;;;0.50;0.50;;;;;;;7.89;100.00;101622.50;5002651;28;20045;-74
2024/03/22 08:00:48;;;;;;;0.50;0.50;;;;;;;8.35;100.00;101623.69;5050173;28;20055;-73
2024/03/22 08:03:15;;;;;;;0.50;0.50;;;;;;;8.70;100.00;101622.31;5049801;28;20033;-73
2024/03/22 08:05:41;;;;;;;0.50;0.50;;;;;;;9.12;100.00;101632.69;5025221;28;20061;-73
2024/03/22 08:08:06;;;;;;;0.52;0.52;;;;;;;9.47;100.00;101631.16;5031765;28;20091;-72
2024/03/22 08:10:32;;;;;;;0.50;0.50;;;;;;;9.79;100.00;101624.53;5015648;28;20029;-72
2024/03/22 08:12:58;;;;;;;0.50;0.50;;;;;;;10.03;100.00;101627.50;5002748;28;20029;-73
2024/03/22 08:15:23;;;;;;;0.50;0.50;;;;;;;10.27;100.00;101634.16;5014468;28;20056;-73
2024/03/22 08:17:49;;;;;;;0.60;0.60;;;;;;;10.51;100.00;101636.25;5027993;28;20510;-73
2024/03/22 08:20:15;;;;;;;0.60;0.60;;;;;;;10.80;100.00;101627.94;5018983;28;20464;-73
2024/03/22 08:22:40;;;;;;;0.55;0.55;;;;;;;10.90;100.00;101635.91;5018896;28;20041;-73
2024/03/22 08:25:07;;;;;;;6.72;1.08;;;;;;;11.03;100.00;101636.34;5028829;28;20491;-73
2024/03/22 08:27:34;;;;;;;13.57;2.17;;;;;;;11.17;100.00;101641.16;5026970;28;20026;-73
2024/03/22 08:30:00;;;;;;;9.18;1.92;;;;;;;11.49;100.00;101631.59;5002904;28;20036;-74
2024/03/22 08:32:26;;;;;;;8.15;1.90;;;;;;;11.79;100.00;101646.38;5031672;28;20058;-73
2024/03/22 08:34:51;;;;;;;11.60;2.00;;;;;;;12.02;100.00;101643.97;5021889;28;20523;-73
2024/03/22 08:37:17;;;;;;;5.93;1.50;;;;;;;12.19;100.00;101642.16;5020626;28;20084;-73
2024/03/22 08:39:43;;;;;;;12.65;2.33;;;;;;;12.51;100.00;101648.59;5022014;28;20380;-73
2024/03/22 08:42:09;;;;;;;13.20;2.88;;;;;;;12.82;100.00;101645.25;5021931;28;20032;-73
2024/03/22 08:44:35;;;;;;;10.90;1.90;;;;;;;13.06;100.00;101639.84;5021801;28;20475;-74
2024/03/22 08:47:01;;;;;;;9.90;2.30;;;;;;;13.28;100.00;101646.41;5054901;28;20074;-73
2024/03/22 08:49:27;;;;;;;4.63;1.50;;;;;;;13.45;100.00;101658.03;5021714;28;20036;-73
2024/03/22 08:51:52;;;;;;;14.70;2.60;;;;;;;13.72;100.00;101656.78;5037655;28;20039;-73
2024/03/22 08:54:18;;;;;;;9.00;1.92;;;;;;;14.01;100.00;101658.00;5037869;28;20091;-73
2024/03/22 08:56:44;;;;;;;15.57;2.50;;;;;;;13.94;100.00;101657.84;5020399;28;20131;-73
2024/03/22 08:59:10;;;;;;;7.05;1.95;;;;;;;13.99;100.00;101655.47;5021503;28;20119;-70
2024/03/22 09:01:36;;;;;;;3.38;1.13;;;;;;;13.85;100.00;101648.09;5021477;28;20036;-73
2024/03/22 09:04:02;;;;;;;6.72;1.85;;;;;;;13.70;100.00;101645.28;5021413;28;20383;-73
2024/03/22 09:06:28;;;;;;;12.23;2.25;;;;;;;13.78;100.00;101647.94;5020626;28;20478;-72
2024/03/22 09:08:57;;;;;;;12.00;2.42;;;;;;;14.01;100.00;101653.44;5020968;28;20033;-73
2024/03/22 09:11:24;;;;;;;7.30;2.08;;;;;;;13.99;100.00;101650.06;5021470;28;20037;-73
2024/03/22 09:13:53;;;;;;;7.18;2.20;;;;;;;13.76;100.00;101646.44;5021316;28;20120;-72
2024/03/22 09:16:20;;;;;;;10.23;2.08;;;;;;;13.83;100.00;101650.13;5037736;28;20044;-72
2024/03/22 09:18:46;;;;;;;15.15;2.22;;;;;;;14.04;100.00;101647.66;5037562;28;20033;-72
2024/03/22 09:21:12;;;;;;;10.95;2.10;;;;;;;14.26;100.00;101646.03;5020756;28;20036;-73
2024/03/22 09:23:37;;;;;;;14.55;3.08;;;;;;;14.37;100.00;101652.03;5053983;28;20108;-76
2024/03/22 09:26:04;;;;;;;9.13;1.48;;;;;;;14.45;100.00;101641.19;5020433;28;20102;-72
2024/03/22 09:28:29;;;;;;;10.38;2.30;;;;;;;14.55;100.00;101644.50;5020443;28;20064;-73
2024/03/22 09:30:56;;;;;;;6.43;2.10;;;;;;;15.09;100.00;101643.56;4998897;28;20046;-73
2024/03/22 09:33:22;;;;;;;5.53;1.77;;;;;;;15.87;100.00;101641.38;5015247;28;20379;-73
2024/03/22 09:35:47;;;;;;;8.98;2.25;;;;;;;14.51;100.00;101638.59;4997775;28;20038;-73
2024/03/22 09:38:13;;;;;;;11.52;2.10;;;;;;;12.00;100.00;101645.97;5030307;28;20037;-73
2024/03/22 09:40:39;;;;;;;7.75;2.08;;;;;;;10.32;100.00;101648.00;5013602;28;20040;-73
2024/03/22 09:43:07;;;;;;;8.13;2.33;;;;;;;9.98;100.00;101664.75;4997766;28;20030;-73
2024/03/22 09:45:34;;;;;;;7.95;1.98;;;;;;;12.20;100.00;101657.34;4981397;28;20026;-73
2024/03/22 09:48:00;;;;;;;11.05;2.70;;;;;;;13.32;100.00;101663.13;5013466;28;20133;-73
2024/03/22 09:50:26;;;;;;;9.35;2.45;;;;;;;13.94;100.00;101657.84;4997624;28;20127;-74
2024/03/22 09:52:52;;;;;;;9.82;1.70;;;;;;;14.12;100.00;101646.78;4997496;28;20037;-74
2024/03/22 09:55:22;;;;;;;7.25;1.60;;;;;;;14.26;100.00;101646.03;5013415;28;20374;-73
2024/03/22 09:57:50;;;;;;;7.28;1.95;;;;;;;14.39;100.00;101641.88;5029746;28;20022;-73
2024/03/22 10:00:18;;;;;;;9.70;1.80;;;;;;;14.46;100.00;101650.97;5030422;28;20047;-73
2024/03/22 10:02:46;;;;;;;8.02;1.73;;;;;;;14.49;100.00;101656.03;5013712;28;20485;-73
2024/03/22 10:05:14;;;;;;;4.93;1.40;;;;;;;14.78;100.00;101652.63;5030109;28;20065;-74
2024/03/22 10:07:41;;;;;;;4.05;1.52;;;;;;;15.29;100.00;101642.00;5013662;28;20572;-73
2024/03/22 10:10:07;;;;;;;5.90;1.42;;;;;;;14.62;100.00;101645.47;5013585;28;20034;-73
2024/03/22 10:12:33;;;;;;;11.85;2.42;;;;;;;14.38;100.00;101645.63;5013273;28;20038;-73
2024/03/22 10:14:59;;;;;;;5.60;1.38;;;;;;;14.11;100.00;101646.97;5013904;28;20036;-74
2024/03/22 10:17:27;;;;;;;7.65;1.85;;;;;;;13.83;100.00;101650.97;4998020;28;20042;-74
2024/03/22 10:19:53;;;;;;;2.30;1.30;;;;;;;14.56;100.00;101650.78;5013283;28;20034;-74
2024/03/22 10:22:18;;;;;;;11.68;2.13;;;;;;;14.38;100.00;101648.34;5014597;28;20392;-73
2024/03/22 10:24:44;;;;;;;8.23;2.53;;;;;;;14.66;100.00;101657.63;4997065;28;20049;-73
2024/03/22 10:27:11;;;;;;;6.35;1.60;;;;;;;15.19;100.00;101657.69;5029364;28;20050;-73
2024/03/22 10:29:37;;;;;;;9.07;2.58;;;;;;;12.53;100.00;101671.72;4996665;28;20473;-73
2024/03/22 10:32:02;;;;;;;3.20;1.50;;;;;;;9.37;100.00;101681.38;4980699;28;20048;-73
2024/03/22 10:34:28;;;;;;;3.72;1.58;;;;;;;7.82;100.00;101688.28;4996950;28;20088;-73
2024/03/22 10:36:57;;;;;;;3.90;1.13;;;;;;;7.06;100.00;101677.03;4996812;28;20477;-73
2024/03/22 10:39:23;;;;;;;4.10;0.73;;;;;;;6.62;100.00;101673.63;4997010;28;20044;-73
2024/03/22 10:41:51;;;;;;;1.80;0.90;;;;;;;6.45;100.00;101676.81;4980622;28;20033;-73
2024/03/22 10:44:17;;;;;;;4.75;1.50;;;;;;;8.23;100.00;101669.50;4980849;28;20037;-73
2024/03/22 10:46:48;;;;;;;1.38;0.90;;;;;;;9.27;100.00;101676.03;4996499;28;20025;-73
2024/03/22 10:49:16;;;;;;;3.40;1.27;;;;;;;10.23;100.00;101659.63;4997286;28;20045;-73
2024/03/22 10:51:44;;;;;;;3.83;1.08;;;;;;;11.65;100.00;101655.06;4996769;28;20541;-73
2024/03/22 10:54:15;;;;;;;5.95;1.33;;;;;;;12.43;100.00;101662.91;5013503;28;20353;-73
2024/03/22 10:56:41;;;;;;;2.30;1.10;;;;;;;12.67;100.00;101654.00;4996645;28;20037;-73
2024/03/22 10:59:07;;;;;;;0.70;0.70;;;;;;;12.85;100.00;101656.56;4996630;28;20133;-73
2024/03/22 11:01:36;;;;;;;7.38;1.60;;;;;;;13.10;100.00;101648.47;5012073;28;20030;-73
2024/03/22 11:04:10;;;;;;;5.82;1.80;;;;;;;13.18;100.00;101652.00;5028332;28;20540;-73
2024/03/22 11:06:39;;;;;;;6.28;1.52;;;;;;;13.26;100.00;101647.56;4980412;28;20068;-73
2024/03/22 11:09:05;;;;;;;6.03;1.35;;;;;;;13.27;100.00;101638.50;5012839;28;20125;-73
2024/03/22 11:11:37;;;;;;;4.93;1.35;;;;;;;13.34;100.00;101629.53;4980270;28;20124;-73
2024/03/22 11:14:03;;;;;;;9.18;2.38;;;;;;;13.59;100.00;101640.25;4997414;28;20057;-73
2024/03/22 11:16:30;;;;;;;6.30;2.03;;;;;;;13.90;100.00;101634.06;5029047;28;20036;-73